Time;durP1;ratioP1;P1;durP2;ratioP2;P2;SDS_P1;SDS_P2;PMS_P1;PMS_P2;Temp;Humidity;BMP_temperature;BMP_pressure;BME280_temperature;BME280_humidity;BME280_pressure;Samples;Min_cycle;Max_cycle;Signal;HPM_P1;HPM_P2
2022/06/20 00:02:32;;;;;;;8.10;6.40;;;17.00;99.90;17.70;96450.00;;;;5064431;28;20569;-88
2022/06/20 00:05:24;;;;;;;9.77;7.27;;;16.90;99.90;17.80;96441.00;;;;5066830;28;20196;-89
2022/06/20 00:08:13;;;;;;;7.10;6.40;;;16.90;99.90;17.90;96432.00;;;;5057008;28;20226;-88
2022/06/20 00:11:04;;;;;;;8.20;7.37;;;16.90;99.90;18.20;96442.00;;;;5067899;28;20208;-89
2022/06/20 00:13:56;;;;;;;8.47;6.93;;;16.90;99.90;18.30;96436.00;;;;5063278;28;20653;-89
2022/06/20 00:16:45;;;;;;;10.00;7.40;;;16.90;99.90;18.50;96430.00;;;;5065120;28;20695;-90
2022/06/20 00:19:34;;;;;;;7.87;6.33;;;17.00;99.90;18.20;96428.00;;;;5061528;28;20204;-89
2022/06/20 00:22:23;;;;;;;12.57;6.73;;;17.10;99.90;18.20;96433.00;;;;5065624;28;20200;-89
2022/06/20 00:25:12;;;;;;;12.50;6.77;;;16.90;99.90;18.30;96431.00;;;;5064910;28;20196;-89
2022/06/20 00:28:02;;;;;;;8.57;6.37;;;17.10;99.90;17.90;96416.00;;;;5056442;28;20239;-89
2022/06/20 00:30:51;;;;;;;7.70;6.80;;;17.00;99.90;17.70;96422.00;;;;5069417;28;20668;-89
2022/06/20 00:33:40;;;;;;;10.37;7.03;;;16.80;99.90;17.40;96418.00;;;;5071870;28;20216;-89
2022/06/20 00:36:29;;;;;;;13.63;7.80;;;16.90;99.90;17.30;96413.00;;;;5065819;28;20993;-89
2022/06/20 00:39:20;;;;;;;10.03;6.83;;;16.70;99.90;17.00;96395.00;;;;5065786;28;20207;-89
2022/06/20 00:42:11;;;;;;;8.10;7.23;;;16.50;99.90;17.10;96398.00;;;;5069879;28;20199;-89
2022/06/20 00:45:05;;;;;;;9.30;7.30;;;16.70;99.90;17.50;96399.00;;;;5064995;28;20214;-90
2022/06/20 00:48:02;;;;;;;10.20;7.47;;;16.40;99.90;17.50;96396.00;;;;5069295;28;20215;-89
2022/06/20 00:51:00;;;;;;;7.50;6.83;;;16.60;99.90;17.50;96397.00;;;;5074429;28;20215;-89
2022/06/20 00:53:56;;;;;;;8.23;7.40;;;16.40;99.90;17.40;96388.00;;;;5071212;28;20224;-89
2022/06/20 00:56:53;;;;;;;8.57;6.87;;;16.40;99.90;17.40;96381.00;;;;5067619;28;20202;-89
2022/06/20 00:59:46;;;;;;;7.50;6.87;;;16.40;99.90;17.50;96374.00;;;;5063379;28;20189;-89
2022/06/20 01:02:41;;;;;;;8.43;6.80;;;16.40;99.90;17.20;96370.00;;;;5065365;28;20661;-89
2022/06/20 01:05:38;;;;;;;10.00;7.23;;;16.30;99.90;17.40;96369.00;;;;5065451;28;20617;-90
2022/06/20 01:08:31;;;;;;;8.00;7.20;;;16.40;99.90;17.50;96357.00;;;;5071465;28;20216;-89
2022/06/20 01:11:25;;;;;;;8.13;7.27;;;16.40;99.90;17.50;96350.00;;;;5060541;28;20192;-89
2022/06/20 01:14:26;;;;;;;10.17;7.20;;;16.30;99.90;17.40;96347.00;;;;5070542;28;20231;-89
2022/06/20 01:17:24;;;;;;;7.53;6.73;;;16.40;99.90;17.60;96349.00;;;;5063756;28;20234;-90
2022/06/20 01:20:24;;;;;;;7.93;7.13;;;16.40;99.90;17.60;96338.00;;;;5066546;28;20199;-89
2022/06/20 01:23:35;;;;;;;7.10;6.43;;;16.40;99.90;17.30;96340.00;;;;5064850;28;20212;-89
2022/06/20 01:26:36;;;;;;;8.47;7.13;;;16.20;99.90;17.00;96323.00;;;;5058569;28;20204;-90
2022/06/20 01:29:27;;;;;;;7.97;7.20;;;16.20;99.90;16.90;96325.00;;;;5067964;28;20703;-90
2022/06/20 01:32:16;;;;;;;10.67;7.30;;;16.10;99.90;16.60;96329.00;;;;5070415;28;20204;-89
2022/06/20 01:35:11;;;;;;;8.13;7.30;;;16.00;99.90;16.60;96334.00;;;;5064532;28;20606;-89
2022/06/20 01:38:01;;;;;;;9.73;6.97;;;15.90;99.90;16.40;96323.00;;;;5068856;28;20254;-89
2022/06/20 01:44:02;;;;;;;11.03;7.60;;;15.60;99.90;16.80;96316.00;;;;5063111;28;20212;-89
2022/06/20 01:46:53;;;;;;;10.70;8.17;;;15.80;99.90;16.90;96319.00;;;;5063353;28;20224;-90
2022/06/20 01:49:44;;;;;;;10.43;7.97;;;15.80;99.90;16.80;96327.00;;;;5064182;28;20222;-89
2022/06/20 01:52:37;;;;;;;8.40;7.30;;;15.70;99.90;17.00;96325.00;;;;5068547;28;20196;-89
2022/06/20 01:55:26;;;;;;;11.03;7.57;;;15.60;99.90;17.20;96324.00;;;;5067467;28;20225;-90
2022/06/20 01:58:22;;;;;;;11.33;8.90;;;16.20;99.90;17.40;96311.00;;;;5062013;28;20355;-89
2022/06/20 02:01:14;;;;;;;7.17;6.57;;;15.90;99.90;17.50;96299.00;;;;5064287;28;20208;-89
2022/06/20 02:04:07;;;;;;;8.30;7.50;;;16.00;99.90;17.20;96304.00;;;;5066339;28;20299;-90
2022/06/20 02:06:56;;;;;;;7.90;7.10;;;15.90;99.90;16.90;96301.00;;;;5069253;28;20216;-90
2022/06/20 02:09:45;;;;;;;8.27;7.50;;;16.00;99.90;16.90;96289.00;;;;5070135;28;20220;-88
2022/06/20 02:12:39;;;;;;;8.73;7.80;;;15.80;99.90;16.80;96293.00;;;;5061537;28;20203;-90
2022/06/20 02:15:29;;;;;;;8.27;7.47;;;15.90;99.90;16.40;96298.00;;;;5068342;28;20643;-89
2022/06/20 02:18:19;;;;;;;10.87;7.77;;;15.80;99.90;16.60;96297.00;;;;5063391;28;20250;-89
2022/06/20 02:21:16;;;;;;;9.63;8.63;;;15.80;99.90;16.30;96298.00;;;;5070977;28;20215;-89
2022/06/20 02:24:09;;;;;;;8.40;7.60;;;15.60;99.90;16.30;96289.00;;;;5063336;28;20279;-88
2022/06/20 02:27:01;;;;;;;11.67;8.27;;;15.40;99.90;16.30;96285.00;;;;5057488;28;20217;-88
2022/06/20 02:29:50;;;;;;;11.83;8.83;;;15.30;99.90;16.50;96287.00;;;;5062350;28;20270;-88
2022/06/20 02:32:44;;;;;;;9.73;8.83;;;15.50;99.90;16.70;96293.00;;;;5061579;28;20245;-89
2022/06/20 02:35:35;;;;;;;11.57;9.50;;;15.30;99.90;16.80;96295.00;;;;5064172;28;20227;-89
2022/06/20 02:38:25;;;;;;;12.03;9.07;;;15.70;99.90;17.10;96292.00;;;;5067949;28;20228;-89
2022/06/20 02:41:16;;;;;;;9.83;8.83;;;15.80;99.90;16.90;96289.00;;;;5062693;28;20184;-91
2022/06/20 02:44:11;;;;;;;9.20;7.67;;;15.70;99.90;16.80;96289.00;;;;5064831;28;20207;-90
2022/06/20 02:47:04;;;;;;;12.77;9.43;;;15.70;99.90;16.50;96280.00;;;;5065494;28;20712;-90
2022/06/20 02:49:57;;;;;;;8.50;7.80;;;15.70;99.90;16.60;96288.00;;;;5061607;28;20251;-89
2022/06/20 02:52:52;;;;;;;8.53;7.70;;;15.60;99.90;16.10;96271.00;;;;5052390;28;20200;-90
2022/06/20 02:55:42;;;;;;;10.67;9.57;;;15.50;99.90;16.00;96267.00;;;;5069149;28;20648;-89
2022/06/20 02:58:34;;;;;;;11.40;8.67;;;15.30;99.90;16.10;96267.00;;;;5067275;28;20688;-89
2022/06/20 03:01:32;;;;;;;9.90;8.90;;;15.20;99.90;16.10;96269.00;;;;5064202;28;20582;-90
2022/06/20 03:04:23;;;;;;;9.97;8.97;;;15.40;99.90;16.30;96273.00;;;;5066882;28;20196;-91
2022/06/20 03:07:16;;;;;;;9.50;8.53;;;15.20;99.90;16.10;96270.00;;;;5063694;28;20219;-89
2022/06/20 03:10:29;;;;;;;10.33;9.03;;;15.10;99.90;16.40;96270.00;;;;5058875;28;20590;-89
2022/06/20 03:13:22;;;;;;;15.40;9.00;;;15.20;99.90;15.90;96269.00;;;;5054911;28;20576;-90
2022/06/20 03:16:12;;;;;;;9.03;8.23;;;15.10;99.90;16.00;96261.00;;;;5066853;28;20224;-89
2022/06/20 03:19:03;;;;;;;10.23;9.20;;;15.10;99.90;16.00;96257.00;;;;5067129;28;20204;-90
2022/06/20 03:21:53;;;;;;;10.67;9.27;;;15.00;99.90;16.30;96261.00;;;;5063195;28;20192;-89
2022/06/20 03:24:43;;;;;;;10.23;9.27;;;15.20;99.90;16.20;96274.00;;;;5063147;28;20697;-90
2022/06/20 03:27:37;;;;;;;15.40;10.63;;;15.00;99.90;15.90;96262.00;;;;5058099;28;20216;-89
2022/06/20 03:30:31;;;;;;;10.10;9.07;;;15.00;99.90;15.90;96260.00;;;;5061189;28;20716;-88
2022/06/20 03:33:22;;;;;;;10.30;9.03;;;15.10;99.90;16.40;96269.00;;;;5061987;28;20301;-89
2022/06/20 03:36:15;;;;;;;12.47;9.97;;;15.20;99.90;16.60;96263.00;;;;5068660;28;20224;-88
2022/06/20 03:39:06;;;;;;;12.73;9.20;;;15.20;99.90;16.10;96263.00;;;;5066858;28;20583;-90
2022/06/20 03:41:55;;;;;;;10.63;9.73;;;15.10;99.90;15.90;96266.00;;;;5061126;28;20204;-89
2022/06/20 03:44:49;;;;;;;10.30;9.23;;;15.20;99.90;15.90;96254.00;;;;5061267;28;20217;-90
2022/06/20 03:47:44;;;;;;;10.47;9.37;;;15.30;99.90;15.80;96258.00;;;;5061750;28;20228;-89
2022/06/20 03:50:37;;;;;;;12.90;8.90;;;15.20;99.90;16.00;96255.00;;;;5066693;28;20217;-89
2022/06/20 03:53:34;;;;;;;10.43;9.53;;;14.90;99.90;16.00;96248.00;;;;5063825;28;20207;-88
2022/06/20 03:56:53;;;;;;;10.50;9.47;;;15.20;99.90;16.60;96257.00;;;;5062261;28;20216;-89
2022/06/20 03:59:46;;;;;;;10.53;9.53;;;;;16.50;96256.00;;;;5063055;28;20544;-90
2022/06/20 04:02:41;;;;;;;11.73;10.00;;;;;16.50;96260.00;;;;5062912;28;20593;-90
2022/06/20 04:05:36;;;;;;;11.07;9.57;;;15.20;99.90;16.80;96259.00;;;;5068135;28;20983;-90
2022/06/20 04:11:42;;;;;;;11.63;10.33;;;15.60;99.90;17.30;96269.00;;;;5064846;28;20199;-90
2022/06/20 04:14:38;;;;;;;10.23;9.33;;;15.60;99.90;17.00;96265.00;;;;5062819;28;20539;-89
2022/06/20 04:20:48;;;;;;;9.77;8.87;;;15.70;99.90;17.30;96269.00;;;;5063703;28;20208;-85
2022/06/20 04:23:45;;;;;;;10.83;9.37;;;15.80;99.90;17.60;96283.00;;;;5072541;28;20210;-85
2022/06/20 04:26:42;;;;;;;10.70;8.73;;;16.80;99.90;17.70;96279.00;;;;5072176;28;20207;-88
2022/06/20 04:29:36;;;;;;;10.50;9.20;;;16.20;99.90;17.70;96280.00;;;;5070902;28;20234;-88
2022/06/20 04:32:36;;;;;;;9.83;8.83;;;16.30;99.90;17.60;96272.00;;;;5073032;28;20204;-86
2022/06/20 04:35:30;;;;;;;10.53;9.03;;;16.20;99.90;18.10;96272.00;;;;5066510;28;20684;-87
2022/06/20 04:38:25;;;;;;;10.17;9.00;;;16.50;99.90;18.20;96269.00;;;;5073702;28;20223;-86
2022/06/20 04:41:26;;;;;;;11.27;9.67;;;16.90;99.90;18.60;96264.00;;;;5074066;28;20189;-86
2022/06/20 04:44:26;;;;;;;10.70;8.83;;;16.70;99.90;18.50;96276.00;;;;5064350;28;20211;-86
2022/06/20 04:47:31;;;;;;;10.17;8.60;;;16.90;99.90;18.60;96264.00;;;;5072530;28;20400;-87
2022/06/20 04:50:24;;;;;;;9.27;8.13;;;17.00;99.90;18.60;96256.00;;;;5065050;28;20676;-86
2022/06/20 04:53:19;;;;;;;9.33;7.63;;;17.10;99.90;18.10;96262.00;;;;5072220;28;20204;-86
2022/06/20 04:56:13;;;;;;;9.30;7.47;;;17.10;99.90;18.20;96258.00;;;;5068614;28;20227;-86
2022/06/20 04:59:07;;;;;;;9.47;8.57;;;17.20;99.90;18.60;96250.00;;;;5073004;28;20206;-86
2022/06/20 05:02:00;;;;;;;9.97;9.13;;;17.00;99.90;18.70;96247.00;;;;5072740;28;20214;-86
2022/06/20 05:04:51;;;;;;;9.03;8.13;;;17.50;99.90;18.80;96248.00;;;;5065916;28;20197;-86
2022/06/20 05:07:41;;;;;;;15.67;7.97;;;17.30;99.90;19.10;96253.00;;;;5069737;28;20217;-87
2022/06/20 05:10:37;;;;;;;11.23;9.00;;;17.60;99.90;19.30;96242.00;;;;5068958;28;20208;-85
2022/06/20 05:13:34;;;;;;;11.77;9.00;;;17.70;99.90;19.30;96241.00;;;;5074478;28;20254;-86
2022/06/20 05:16:28;;;;;;;9.60;8.17;;;17.80;99.90;19.80;96253.00;;;;5076285;28;20211;-86
2022/06/20 05:19:23;;;;;;;13.30;8.67;;;18.00;99.90;19.90;96248.00;;;;5074350;28;20212;-87
2022/06/20 05:22:16;;;;;;;10.57;8.50;;;18.30;99.90;20.30;96236.00;;;;5075621;28;20211;-88
2022/06/20 05:25:11;;;;;;;9.27;8.37;;;18.30;99.90;20.60;96238.00;;;;5071677;28;20192;-86
2022/06/20 05:28:06;;;;;;;8.50;7.77;;;18.70;99.90;20.70;96237.00;;;;5073858;28;20220;-86
2022/06/20 05:30:56;;;;;;;11.67;8.50;;;18.90;99.90;20.50;96236.00;;;;5070908;28;20215;-86
2022/06/20 05:33:52;;;;;;;10.93;9.20;;;19.00;99.90;20.50;96235.00;;;;5067979;28;20572;-85
2022/06/20 05:36:49;;;;;;;9.53;8.53;;;19.10;99.90;20.60;96232.00;;;;5076006;28;20219;-87
2022/06/20 05:39:43;;;;;;;12.23;10.30;;;19.30;99.90;20.70;96220.00;;;;5071008;28;20200;-86
2022/06/20 05:42:32;;;;;;;8.57;7.67;;;19.00;99.90;20.70;96215.00;;;;5073223;28;20200;-86
2022/06/20 05:45:25;;;;;;;10.70;8.33;;;19.50;99.90;21.10;96227.00;;;;5074039;28;20200;-86
2022/06/20 05:48:14;;;;;;;10.33;9.27;;;19.50;99.90;21.00;96222.00;;;;5073940;28;20223;-87
2022/06/20 05:51:07;;;;;;;9.20;8.37;;;19.60;99.90;21.30;96233.00;;;;5071092;28;20208;-85
2022/06/20 05:54:00;;;;;;;9.67;8.60;;;19.90;99.90;21.60;96233.00;;;;5072716;28;20683;-85
2022/06/20 05:56:54;;;;;;;10.03;9.03;;;20.00;99.90;21.90;96228.00;;;;5072250;28;20219;-85
2022/06/20 05:59:47;;;;;;;12.63;9.63;;;20.10;99.90;21.90;96228.00;;;;5069254;28;20583;-86
2022/06/20 06:02:43;;;;;;;10.27;8.67;;;20.40;99.90;21.90;96212.00;;;;5074056;28;20196;-87
2022/06/20 06:05:36;;;;;;;10.37;8.17;;;20.50;99.90;22.20;96207.00;;;;5071183;28;20196;-87
2022/06/20 06:08:33;;;;;;;12.13;8.33;;;20.50;99.90;22.90;96204.00;;;;5072744;28;20231;-86
2022/06/20 06:11:44;;;;;;;9.80;8.80;;;20.70;99.90;23.00;96201.00;;;;5073678;28;20333;-85
2022/06/20 06:14:40;;;;;;;10.03;8.53;;;21.00;99.90;23.30;96193.00;;;;5074534;28;20204;-85
2022/06/20 06:17:38;;;;;;;12.00;8.70;;;21.30;99.90;23.50;96195.00;;;;5074535;28;20223;-85
2022/06/20 06:20:33;;;;;;;12.37;9.70;;;21.60;99.90;23.70;96204.00;;;;5075825;28;20196;-86
2022/06/20 06:23:22;;;;;;;9.47;8.57;;;21.80;99.90;23.90;96188.00;;;;5073747;28;20208;-85
2022/06/20 06:26:16;;;;;;;8.97;8.07;;;22.00;99.90;24.60;96201.00;;;;5073447;28;20208;-86
2022/06/20 06:29:06;;;;;;;10.20;8.93;;;22.20;99.90;24.50;96206.00;;;;5072688;28;20215;-87
2022/06/20 06:32:05;;;;;;;9.77;8.27;;;22.40;99.90;24.60;96208.00;;;;5070810;28;20207;-86
2022/06/20 06:35:03;;;;;;;11.20;8.40;;;22.60;99.90;25.10;96214.00;;;;5073340;28;20200;-86
2022/06/20 06:38:00;;;;;;;8.83;8.07;;;22.70;99.90;25.40;96214.00;;;;5071363;28;20245;-86
2022/06/20 06:40:52;;;;;;;13.07;8.87;;;23.00;99.90;25.50;96206.00;;;;5072271;28;20619;-86
2022/06/20 06:43:45;;;;;;;8.87;7.97;;;23.20;99.90;25.80;96206.00;;;;5073145;28;20203;-86
2022/06/20 06:46:41;;;;;;;10.97;8.20;;;23.50;99.90;25.80;96193.00;;;;5072237;28;20701;-85
2022/06/20 06:49:37;;;;;;;13.47;8.20;;;23.60;99.90;25.70;96192.00;;;;5071748;28;20208;-86
2022/06/20 06:52:37;;;;;;;9.50;7.93;;;23.70;99.90;25.90;96187.00;;;;5071283;28;20246;-86
2022/06/20 06:55:33;;;;;;;12.17;9.07;;;23.80;99.90;26.30;96192.00;;;;5071197;28;20203;-86
2022/06/20 06:58:27;;;;;;;8.30;7.60;;;24.40;99.90;26.60;96183.00;;;;5072311;28;20235;-86
2022/06/20 07:01:21;;;;;;;9.30;8.37;;;24.20;99.90;26.80;96187.00;;;;5071697;28;20699;-86
2022/06/20 07:04:17;;;;;;;9.53;8.63;;;24.40;99.90;26.90;96178.00;;;;5070812;28;20206;-86
2022/06/20 07:07:15;;;;;;;16.83;8.63;;;24.50;99.90;27.00;96176.00;;;;5064777;28;20235;-87
2022/06/20 07:10:22;;;;;;;9.30;8.40;;;24.70;99.90;27.40;96174.00;;;;5069457;28;20208;-86
2022/06/20 07:13:22;;;;;;;9.37;8.30;;;25.00;99.90;27.30;96160.00;;;;5067050;28;21395;-86
2022/06/20 07:16:22;;;;;;;11.80;8.90;;;25.10;99.90;27.70;96166.00;;;;5071318;28;20586;-86
2022/06/20 07:19:13;;;;;;;11.77;10.30;;;25.40;99.90;28.00;96168.00;;;;5063411;28;20229;-86
2022/06/20 07:22:04;;;;;;;9.90;8.43;;;25.60;99.90;28.20;96166.00;;;;5070847;28;20206;-86
2022/06/20 07:24:54;;;;;;;11.73;8.67;;;25.70;99.90;28.40;96176.00;;;;5068727;28;20583;-87
2022/06/20 07:27:52;;;;;;;9.00;7.87;;;25.90;99.90;28.50;96166.00;;;;5068657;28;20240;-86
2022/06/20 07:30:46;;;;;;;13.17;8.53;;;26.10;99.90;28.60;96164.00;;;;5066188;28;20581;-86
2022/06/20 07:33:48;;;;;;;11.30;8.90;;;26.20;99.90;28.70;96160.00;;;;5069840;28;20196;-87
2022/06/20 07:36:45;;;;;;;14.10;8.47;;;26.50;99.90;28.90;96159.00;;;;5071982;28;20939;-86
2022/06/20 07:39:39;;;;;;;9.90;8.60;;;26.50;99.90;29.20;96159.00;;;;5075460;28;20200;-87
2022/06/20 07:42:39;;;;;;;12.77;8.90;;;26.70;99.90;29.30;96157.00;;;;5069703;28;20199;-87
2022/06/20 07:45:37;;;;;;;9.30;8.37;;;26.90;99.90;29.30;96165.00;;;;5068792;28;20235;-87
2022/06/20 07:48:34;;;;;;;12.17;8.37;;;26.90;99.90;29.70;96154.00;;;;5070322;28;20227;-86
2022/06/20 07:51:29;;;;;;;9.30;8.13;;;27.20;99.90;29.70;96157.00;;;;5076497;28;20218;-87
2022/06/20 07:54:24;;;;;;;9.67;8.67;;;27.30;99.90;29.80;96155.00;;;;5060926;28;20192;-87
2022/06/20 07:57:18;;;;;;;9.03;8.27;;;27.50;99.90;30.10;96145.00;;;;5074103;28;20230;-88
2022/06/20 08:00:15;;;;;;;9.10;8.30;;;27.60;99.90;30.20;96138.00;;;;5073757;28;20218;-88
2022/06/20 08:03:18;;;;;;;14.07;9.30;;;27.70;99.90;30.40;96141.00;;;;5074731;28;20203;-87
2022/06/20 08:06:22;;;;;;;9.43;8.50;;;28.00;99.90;30.60;96140.00;;;;5075507;28;20627;-86
2022/06/20 08:09:19;;;;;;;10.23;8.53;;;28.00;99.90;30.80;96144.00;;;;5064829;28;20235;-87
2022/06/20 08:12:18;;;;;;;10.90;8.77;;;27.90;99.90;31.10;96140.00;;;;5072268;28;20197;-87
2022/06/20 08:15:13;;;;;;;9.87;8.97;;;28.40;99.90;30.60;96143.00;;;;5073247;28;20224;-88
2022/06/20 08:18:02;;;;;;;11.07;8.23;;;28.60;99.90;30.60;96141.00;;;;5073271;28;20222;-87
2022/06/20 08:20:59;;;;;;;10.67;8.87;;;28.60;99.90;31.20;96143.00;;;;5068109;28;20201;-87
2022/06/20 08:23:53;;;;;;;8.60;7.97;;;28.70;99.90;31.30;96140.00;;;;5074608;28;20203;-87
2022/06/20 08:26:49;;;;;;;9.33;8.40;;;28.70;99.90;31.20;96138.00;;;;5073155;28;20207;-88
2022/06/20 08:29:43;;;;;;;8.77;8.07;;;28.80;99.90;31.50;96144.00;;;;5071426;28;20216;-87
2022/06/20 08:32:44;;;;;;;10.77;8.17;;;29.00;99.90;31.40;96137.00;;;;5074824;28;20207;-87
2022/06/20 08:35:40;;;;;;;9.27;7.33;;;29.10;99.90;31.80;96133.00;;;;5074282;28;20196;-86
2022/06/20 08:38:39;;;;;;;11.60;8.53;;;29.20;99.90;31.80;96134.00;;;;5078470;28;20249;-86
2022/06/20 08:42:07;;;;;;;9.90;8.63;;;29.40;99.90;31.60;96137.00;;;;5075912;28;20228;-86
2022/06/20 08:45:19;;;;;;;12.70;8.87;;;29.50;99.90;31.90;96139.00;;;;5072026;28;20215;-86
2022/06/20 08:48:58;;;;;;;8.82;7.93;;;29.60;99.90;31.90;96135.00;;;;5071654;28;20595;-86
2022/06/20 08:52:42;;;;;;;9.00;8.30;;;29.60;99.90;32.30;96137.00;;;;5068934;28;20222;-87
2022/06/20 08:56:22;;;;;;;11.20;8.10;;;29.80;99.90;32.50;96129.00;;;;5037359;28;20229;-86
2022/06/20 08:59:34;;;;;;;8.48;7.65;;;30.20;99.90;32.90;96128.00;;;;5063578;28;20208;-85
2022/06/20 09:02:51;;;;;;;9.88;8.57;;;30.20;99.90;32.80;96122.00;;;;5080288;28;20196;-86
2022/06/20 09:06:00;;;;;;;18.75;8.93;;;30.40;99.90;32.80;96125.00;;;;5081417;28;20205;-86
2022/06/20 09:09:26;;;;;;;11.05;8.93;;;30.40;99.70;31.90;96121.00;;;;5083474;28;20228;-87
2022/06/20 09:12:57;;;;;;;13.68;8.75;;;30.40;96.70;33.10;96113.00;;;;5081029;28;20218;-86
2022/06/20 09:15:53;;;;;;;12.27;9.45;;;30.60;98.00;33.50;96113.00;;;;5077153;28;20665;-85
2022/06/20 09:19:09;;;;;;;15.63;9.00;;;30.70;95.20;33.60;96113.00;;;;5077234;28;20218;-86
2022/06/20 09:22:10;;;;;;;14.05;8.88;;;30.90;94.20;33.90;96128.00;;;;5070745;28;20211;-86
2022/06/20 09:25:14;;;;;;;13.05;9.00;;;31.20;92.90;33.80;96116.00;;;;5074761;28;20201;-86
2022/06/20 09:28:35;;;;;;;16.48;9.57;;;31.40;92.50;34.40;96118.00;;;;5080981;28;20242;-86
2022/06/20 09:31:58;;;;;;;9.95;8.00;;;31.60;92.30;34.50;96113.00;;;;5076210;28;20674;-86
2022/06/20 09:35:11;;;;;;;15.68;9.23;;;31.80;90.60;34.70;96105.00;;;;5079037;28;20235;-87
2022/06/20 09:38:33;;;;;;;12.77;8.82;;;32.00;91.00;35.10;96095.00;;;;5082607;28;20214;-86
2022/06/20 09:41:31;;;;;;;13.05;9.38;;;32.20;90.50;35.10;96096.00;;;;5081734;28;20211;-86
2022/06/20 09:44:31;;;;;;;11.95;8.02;;;32.50;89.10;34.70;96108.00;;;;5083514;28;20575;-87
2022/06/20 09:47:36;;;;;;;13.98;8.07;;;32.40;90.40;34.30;96103.00;;;;5080264;28;20376;-87
2022/06/20 09:50:44;;;;;;;15.05;9.02;;;32.20;92.20;34.40;96099.00;;;;5078535;28;20207;-86
2022/06/20 09:53:50;;;;;;;9.57;8.55;;;32.20;90.20;34.40;96099.00;;;;5083704;28;20221;-87
2022/06/20 09:56:48;;;;;;;12.75;9.93;;;32.10;88.00;35.20;96100.00;;;;5078213;28;20202;-86
2022/06/20 09:59:52;;;;;;;15.93;9.88;;;32.40;87.20;35.00;96107.00;;;;5080794;28;20229;-87
2022/06/20 10:02:57;;;;;;;15.60;9.32;;;32.50;87.60;35.20;96104.00;;;;5078178;28;20197;-86
2022/06/20 10:05:54;;;;;;;16.20;8.82;;;32.60;87.60;34.90;96100.00;;;;5072094;28;20676;-87
2022/06/20 10:08:56;;;;;;;14.85;7.90;;;32.60;83.50;34.70;96098.00;;;;5081157;28;20234;-87
2022/06/20 10:11:53;;;;;;;11.82;8.20;;;32.60;82.80;33.90;96084.00;;;;5081080;28;20216;-86
2022/06/20 10:14:55;;;;;;;11.98;8.20;;;32.50;80.90;35.20;96078.00;;;;5080267;28;20200;-87
2022/06/20 10:17:54;;;;;;;14.23;9.05;;;32.60;82.60;35.50;96080.00;;;;5077236;28;20224;-86
2022/06/20 10:20:51;;;;;;;11.48;8.40;;;32.80;84.40;36.10;96078.00;;;;5073141;28;20206;-86
2022/06/20 10:24:01;;;;;;;9.43;7.22;;;33.10;85.90;35.90;96081.00;;;;5078472;28;20663;-86
2022/06/20 10:27:36;;;;;;;12.88;8.60;;;33.40;83.80;36.20;96088.00;;;;5070223;28;20202;-86
2022/06/20 10:30:46;;;;;;;13.10;8.45;;;33.50;80.70;36.60;96090.00;;;;5072687;28;20207;-87
2022/06/20 10:33:50;;;;;;;9.93;8.02;;;33.70;80.40;36.40;96087.00;;;;5082379;28;20198;-86
2022/06/20 10:36:50;;;;;;;10.00;9.05;;;34.10;83.10;36.30;96094.00;;;;5076158;28;20215;-86
2022/06/20 10:39:48;;;;;;;11.23;8.80;;;34.00;77.50;36.20;96078.00;;;;5083790;28;20257;-86
2022/06/20 10:42:50;;;;;;;10.80;8.30;;;34.20;84.00;36.50;96069.00;;;;5083357;28;20204;-86
2022/06/20 10:45:47;;;;;;;9.10;8.15;;;34.20;77.70;36.90;96078.00;;;;5081844;28;20232;-86
2022/06/20 10:48:58;;;;;;;11.88;8.38;;;34.30;76.90;37.10;96068.00;;;;5079249;28;20224;-86
2022/06/20 10:52:02;;;;;;;9.82;7.90;;;34.50;76.30;37.20;96067.00;;;;5076931;28;20203;-87
2022/06/20 10:55:05;;;;;;;12.48;9.32;;;34.70;75.30;37.30;96062.00;;;;5079326;28;20209;-87
2022/06/20 10:58:02;;;;;;;10.65;7.57;;;34.80;75.10;37.60;96050.00;;;;5078595;28;20231;-87
2022/06/20 11:01:07;;;;;;;11.65;8.43;;;34.80;72.10;37.70;96037.00;;;;5068954;28;20212;-87
2022/06/20 11:04:46;;;;;;;10.13;7.40;;;35.00;72.50;38.10;96037.00;;;;5079532;28;20203;-87
2022/06/20 11:07:41;;;;;;;12.68;8.40;;;35.20;72.00;37.10;96043.00;;;;5029784;28;20250;-86
2022/06/20 11:11:00;;;;;;;11.48;8.32;;;35.10;68.10;37.60;96036.00;;;;5082623;28;20207;-87
2022/06/20 11:13:59;;;;;;;10.55;7.82;;;35.20;70.30;37.50;96031.00;;;;5077051;28;20202;-87
2022/06/20 11:17:01;;;;;;;9.02;7.50;;;35.20;70.20;35.60;96038.00;;;;5076593;28;20201;-87
2022/06/20 11:20:01;;;;;;;10.90;7.53;;;35.00;67.40;36.50;96043.00;;;;5077087;28;20230;-86
2022/06/20 11:22:56;;;;;;;9.20;8.35;;;34.70;70.40;37.30;96037.00;;;;5079677;28;20543;-86
2022/06/20 11:26:04;;;;;;;8.52;7.70;;;34.80;68.90;38.30;96041.00;;;;5083213;28;20196;-86
2022/06/20 11:29:11;;;;;;;7.70;6.88;;;35.10;69.70;39.20;96033.00;;;;5081054;28;20238;-87
2022/06/20 11:32:09;;;;;;;9.32;7.28;;;35.50;69.70;39.30;96045.00;;;;5079422;28;20215;-87
2022/06/20 11:35:15;;;;;;;8.43;7.25;;;35.90;67.70;39.20;96056.00;;;;5078470;28;20207;-87
2022/06/20 11:38:23;;;;;;;10.93;7.75;;;36.30;65.80;38.10;96058.00;;;;5081098;28;20215;-87
2022/06/20 11:41:17;;;;;;;7.82;7.03;;;36.50;62.00;38.90;96049.00;;;;5070131;28;20211;-86
2022/06/20 11:44:44;;;;;;;8.57;7.00;;;36.40;61.40;39.10;96058.00;;;;5080945;28;20207;-88
2022/06/20 11:48:06;;;;;;;8.27;7.10;;;36.70;63.20;40.40;96062.00;;;;5078983;28;21013;-86
2022/06/20 11:51:05;;;;;;;11.02;6.45;;;37.00;62.00;40.40;96066.00;;;;5073288;28;20203;-85
2022/06/20 11:54:13;;;;;;;9.07;7.10;;;37.30;62.30;40.60;96067.00;;;;5084512;28;20211;-85
2022/06/20 11:57:13;;;;;;;9.50;6.60;;;37.60;61.00;40.70;96084.00;;;;5083091;28;20227;-87
2022/06/20 12:00:09;;;;;;;10.02;6.22;;;37.70;60.60;40.30;96103.00;;;;5083689;28;20226;-86
2022/06/20 12:03:07;;;;;;;9.43;7.10;;;37.60;61.90;39.10;96119.00;;;;5077793;28;20200;-85
2022/06/20 12:06:07;;;;;;;8.85;6.45;;;37.30;60.50;37.70;96115.00;;;;5080402;28;20236;-85
2022/06/20 12:09:01;;;;;;;7.10;6.22;;;36.70;59.50;37.60;96130.00;;;;5081599;28;20215;-84
2022/06/20 12:12:18;;;;;;;10.52;6.78;;;36.20;60.00;37.20;96138.00;;;;5086506;28;20203;-85
2022/06/20 12:15:33;;;;;;;13.13;6.55;;;35.70;60.20;36.80;96147.00;;;;5071368;28;20212;-88
2022/06/20 12:18:42;;;;;;;18.67;10.57;;;35.20;60.90;35.90;96148.00;;;;5079531;28;20211;-86
2022/06/20 12:24:43;;;;;;;16.85;10.05;;;34.30;61.40;35.20;96143.00;;;;5080063;28;20199;-86
2022/06/20 12:27:32;;;;;;;12.13;8.45;;;33.90;62.40;35.10;96140.00;;;;5081193;28;20215;-86
2022/06/20 12:30:21;;;;;;;8.85;6.97;;;33.60;65.30;34.70;96126.00;;;;5083065;28;20199;-86
2022/06/20 12:33:12;;;;;;;12.00;7.70;;;33.20;67.40;34.20;96134.00;;;;5083438;28;20203;-86
2022/06/20 12:36:12;;;;;;;10.10;8.05;;;33.00;70.10;34.10;96135.00;;;;5082991;28;20206;-86
2022/06/20 12:39:07;;;;;;;8.82;6.88;;;32.60;70.30;34.00;96139.00;;;;5082723;28;20222;-86
2022/06/20 12:42:04;;;;;;;9.15;7.35;;;32.40;72.10;33.90;96137.00;;;;5080274;28;20207;-86
2022/06/20 12:45:07;;;;;;;7.07;5.68;;;32.20;74.60;33.60;96149.00;;;;5082216;28;20222;-86
2022/06/20 12:48:14;;;;;;;13.77;7.35;;;32.00;76.30;33.30;96161.00;;;;5080071;28;20218;-86
2022/06/20 12:51:13;;;;;;;7.80;5.93;;;31.80;76.70;33.20;96169.00;;;;5068855;28;20214;-86
2022/06/20 12:54:34;;;;;;;11.80;7.20;;;31.60;78.70;32.60;96171.00;;;;5081920;28;20203;-86
2022/06/20 12:58:00;;;;;;;7.68;6.97;;;31.40;77.20;32.90;96149.00;;;;5077115;28;20691;-86
2022/06/20 13:00:56;;;;;;;9.52;6.70;;;31.20;78.70;34.00;96125.00;;;;5078571;28;20245;-86
2022/06/20 13:04:21;;;;;;;8.68;6.90;;;31.50;79.20;34.50;96105.00;;;;5076436;28;20597;-87
2022/06/20 13:07:51;;;;;;;8.75;7.35;;;32.10;78.30;33.80;96102.00;;;;5074521;28;20238;-85
2022/06/20 13:10:53;;;;;;;9.02;6.63;;;32.50;75.20;35.00;96098.00;;;;5077810;28;20223;-86
2022/06/20 13:14:03;;;;;;;8.05;7.22;;;32.80;73.90;36.20;96105.00;;;;5078826;28;20573;-86
2022/06/20 13:17:08;;;;;;;10.50;7.30;;;33.20;71.10;38.70;96106.00;;;;5085545;28;20272;-86
2022/06/20 13:20:21;;;;;;;8.98;7.80;;;34.10;73.50;39.50;96116.00;;;;5083582;28;20219;-87
2022/06/20 13:23:39;;;;;;;8.50;6.53;;;35.00;72.00;39.80;96103.00;;;;5081365;28;20218;-88